Overview Statistics Trail Chart Weather Telemetry Raw packets
 

This is the latest recevied weather packets stored in our database for station/object 9A7DI-13. If no packets are shown the sender has not sent any weather packets the latest 10 day(s).

<< 12 13 14 15 16 17 18 >>
Time Temp. Humidity Pressure Rain* Wind** Luminosity Snow
1788469603 17.78° C 73% 1027.5 hPa - - - -
1788469002 18.33° C 71% 1027.5 hPa - - - -
1788468402 18.89° C 67% 1027.5 hPa - - - -
1788467803 18.33° C 69% 1027.4 hPa - - - -
1788467203 18.33° C 68% 1027.3 hPa - - - -
1788466603 19.44° C 64% 1027.3 hPa - - - -
1788466003 19.44° C 64% 1027.2 hPa - - - -
1788465403 18.33° C 70% 1027.2 hPa - - - -
1788464803 18.89° C 68% 1027.2 hPa - - - -
1788464203 19.44° C 66% 1027.2 hPa - - - -
1788463603 19.44° C 65% 1027.1 hPa - - - -
1788463003 20.56° C 61% 1027.2 hPa - - - -
1788462403 20.56° C 63% 1027.1 hPa - - - -
1788461803 20° C 67% 1027 hPa - - - -
1788461203 21.67° C 60% 1026.9 hPa - - - -
1788460603 21.11° C 61% 1026.7 hPa - - - -
1788460004 21.67° C 59% 1026.6 hPa - - - -
1788459403 23.33° C 53% 1026.7 hPa - - - -
1788458803 23.89° C 53% 1026.7 hPa - - - -
1788458203 23.89° C 55% 1026.5 hPa - - - -
1788457603 23.89° C 53% 1026.3 hPa - - - -
1788457003 25° C 50% 1026.2 hPa - - - -
1788456407 25.56° C 46% 1026.2 hPa - - - -
1788455803 26.67° C 43% 1026.1 hPa - - - -
1788455203 27.78° C 39% 1026 hPa - - - -

* Rain since midnight (hover to see other rain measurements)
** Current wind speed in m/s (hover to see current wind gust speed)